Time;durP1;ratioP1;P1;durP2;ratioP2;P2;SDS_P1;SDS_P2;PMS_P1;PMS_P2;Temp;Humidity;BMP_temperature;BMP_pressure;BME280_temperature;BME280_humidity;BME280_pressure;Samples;Min_cycle;Max_cycle;Signal;HPM_P1;HPM_P2
2022/06/11 00:01:49;;;;;;;2.77;1.40;;;12.30;99.90;;;;;;5067973;28;20594;-84
2022/06/11 00:04:22;;;;;;;2.23;1.10;;;12.30;99.90;;;;;;5067860;28;20895;-84
2022/06/11 00:06:52;;;;;;;4.67;1.90;;;12.30;99.90;;;;;;5068120;28;20457;-84
2022/06/11 00:09:19;;;;;;;8.20;1.90;;;12.10;99.90;;;;;;5068074;28;20419;-84
2022/06/11 00:11:46;;;;;;;4.23;1.60;;;12.00;99.90;;;;;;5068047;28;20439;-84
2022/06/11 00:14:13;;;;;;;3.50;1.40;;;12.00;99.90;;;;;;5068232;28;20815;-84
2022/06/11 00:16:40;;;;;;;3.00;1.23;;;12.00;99.90;;;;;;5068289;28;20418;-84
2022/06/11 00:19:06;;;;;;;1.83;1.20;;;12.00;99.90;;;;;;5068213;28;20778;-84
2022/06/11 00:21:34;;;;;;;3.63;1.47;;;12.00;99.90;;;;;;5068149;28;20458;-84
2022/06/11 00:24:00;;;;;;;3.20;1.47;;;12.00;99.90;;;;;;5068078;28;20469;-85
2022/06/11 00:26:27;;;;;;;3.27;1.70;;;12.00;99.90;;;;;;5068564;28;20419;-85
2022/06/11 00:28:53;;;;;;;2.87;1.27;;;11.90;99.90;;;;;;5089866;28;20419;-84
2022/06/11 00:31:19;;;;;;;2.77;1.50;;;11.90;99.90;;;;;;5072737;28;20432;-84
2022/06/11 00:33:45;;;;;;;2.97;1.40;;;11.90;99.90;;;;;;5089735;28;20181;-83
2022/06/11 00:36:11;;;;;;;10.10;1.57;;;11.80;99.90;;;;;;5089379;28;20737;-84
2022/06/11 00:38:38;;;;;;;3.93;1.30;;;11.80;99.90;;;;;;5089111;28;20482;-84
2022/06/11 00:41:05;;;;;;;3.00;1.50;;;11.80;99.90;;;;;;5086061;28;20463;-83
2022/06/11 00:43:31;;;;;;;4.00;1.93;;;11.80;99.90;;;;;;5071882;28;20724;-85
2022/06/11 00:46:34;;;;;;;4.47;1.97;;;11.70;99.90;;;;;;5055745;28;20454;-85
2022/06/11 00:49:02;;;;;;;6.23;1.80;;;11.60;99.90;;;;;;5075787;28;20176;-85
2022/06/11 00:51:28;;;;;;;3.10;1.67;;;11.70;99.90;;;;;;5075134;28;20946;-85
2022/06/11 00:54:01;;;;;;;7.23;1.77;;;11.60;99.90;;;;;;5075348;28;20834;-84
2022/06/11 00:56:42;;;;;;;3.17;1.70;;;11.70;99.90;;;;;;5075264;28;20542;-84
2022/06/11 00:59:13;;;;;;;2.77;1.20;;;11.60;99.90;;;;;;5075172;28;20417;-84
2022/06/11 01:01:39;;;;;;;3.27;1.80;;;11.60;99.90;;;;;;5075648;28;20484;-84
2022/06/11 01:04:31;;;;;;;3.13;1.30;;;11.60;99.90;;;;;;5075732;28;20911;-84
2022/06/11 01:07:04;;;;;;;3.70;1.90;;;11.50;99.90;;;;;;5074734;28;20184;-84
2022/06/11 01:09:50;;;;;;;2.87;1.47;;;11.50;99.90;;;;;;5074561;28;20422;-85
2022/06/11 01:12:19;;;;;;;3.37;1.43;;;11.50;99.90;;;;;;5074116;28;20406;-84
2022/06/11 01:14:50;;;;;;;5.23;1.80;;;11.40;99.90;;;;;;5072807;28;20422;-84
2022/06/11 01:17:42;;;;;;;8.63;1.60;;;11.40;99.90;;;;;;5071986;28;20403;-84
2022/06/11 01:20:16;;;;;;;2.80;1.83;;;11.40;99.90;;;;;;5071067;28;20465;-84
2022/06/11 01:23:10;;;;;;;4.73;1.77;;;11.40;99.90;;;;;;5071182;28;20589;-84
2022/06/11 01:26:00;;;;;;;3.10;1.80;;;11.30;99.90;;;;;;5071207;28;20412;-84
2022/06/11 01:29:05;;;;;;;2.90;1.30;;;11.40;99.90;;;;;;5070736;28;20396;-84
2022/06/11 01:31:56;;;;;;;2.77;1.50;;;11.40;99.90;;;;;;5068965;28;20433;-85
2022/06/11 01:34:39;;;;;;;4.57;2.00;;;11.40;99.90;;;;;;5070881;28;20414;-85
2022/06/11 01:37:12;;;;;;;6.27;1.47;;;11.40;99.90;;;;;;5070464;28;20697;-84
2022/06/11 01:39:43;;;;;;;3.60;2.10;;;11.50;99.90;;;;;;5071254;28;20736;-84
2022/06/11 01:42:22;;;;;;;3.17;1.50;;;11.50;99.90;;;;;;5071003;28;20423;-84
2022/06/11 01:45:14;;;;;;;13.70;2.07;;;11.50;99.90;;;;;;5070900;28;20439;-84
2022/06/11 01:47:41;;;;;;;6.93;2.10;;;11.60;99.90;;;;;;5070582;28;20411;-85
2022/06/11 01:50:08;;;;;;;2.63;1.50;;;11.50;99.90;;;;;;5070625;28;21028;-84
2022/06/11 01:52:55;;;;;;;2.90;1.80;;;11.40;99.90;;;;;;5070925;28;20427;-84
2022/06/11 01:55:35;;;;;;;2.03;1.50;;;11.40;99.90;;;;;;5069996;28;20505;-85
2022/06/11 01:58:15;;;;;;;4.00;2.07;;;11.30;99.90;;;;;;5070237;28;20415;-85
2022/06/11 02:00:57;;;;;;;5.87;1.97;;;11.30;99.90;;;;;;5070083;28;20576;-85
2022/06/11 02:03:37;;;;;;;3.27;1.70;;;11.30;99.90;;;;;;5069539;28;20403;-84
2022/06/11 02:06:22;;;;;;;3.27;1.83;;;11.30;99.90;;;;;;5070096;28;20439;-84
2022/06/11 02:08:47;;;;;;;4.30;2.10;;;11.20;99.90;;;;;;5070116;28;20407;-84
2022/06/11 02:11:26;;;;;;;2.43;1.70;;;11.30;99.90;;;;;;5070588;28;20489;-85
2022/06/11 02:14:28;;;;;;;5.80;2.17;;;11.20;99.90;;;;;;5069936;28;20173;-84
2022/06/11 02:16:57;;;;;;;5.10;1.73;;;11.20;99.90;;;;;;5069943;28;20418;-85
2022/06/11 02:19:27;;;;;;;4.37;1.70;;;11.20;99.90;;;;;;5070156;28;20947;-85
2022/06/11 02:22:00;;;;;;;7.87;1.87;;;11.10;99.90;;;;;;5070132;28;20498;-84
2022/06/11 02:24:33;;;;;;;3.93;1.70;;;11.10;99.90;;;;;;5069889;28;20601;-84
2022/06/11 02:27:04;;;;;;;3.53;1.70;;;11.10;99.90;;;;;;5069405;28;20412;-84
2022/06/11 02:29:31;;;;;;;2.67;1.40;;;11.10;99.90;;;;;;5069951;28;20498;-84
2022/06/11 02:32:04;;;;;;;7.60;1.70;;;11.00;99.90;;;;;;5069357;28;20866;-84
2022/06/11 02:34:29;;;;;;;3.30;1.97;;;11.00;99.90;;;;;;5069531;28;20490;-85
2022/06/11 02:37:05;;;;;;;4.00;1.80;;;11.00;99.90;;;;;;5069232;28;20522;-84
2022/06/11 02:39:34;;;;;;;3.40;2.17;;;11.00;99.90;;;;;;5070159;28;20203;-84
2022/06/11 02:42:01;;;;;;;3.60;2.17;;;11.00;99.90;;;;;;5069305;28;20463;-84
2022/06/11 02:44:26;;;;;;;5.00;2.07;;;11.00;99.90;;;;;;5069426;28;20419;-84
2022/06/11 02:46:52;;;;;;;4.23;2.63;;;11.00;99.90;;;;;;5069627;28;20408;-84
2022/06/11 02:49:29;;;;;;;3.07;1.57;;;10.90;99.90;;;;;;5069121;28;20207;-84
2022/06/11 02:51:59;;;;;;;4.20;1.83;;;10.90;99.90;;;;;;5069674;28;20432;-84
2022/06/11 02:54:25;;;;;;;2.63;1.80;;;10.90;99.90;;;;;;5069584;28;20451;-84
2022/06/11 02:56:53;;;;;;;6.43;2.53;;;10.90;99.90;;;;;;5069162;28;20503;-84
2022/06/11 02:59:20;;;;;;;3.90;2.20;;;10.90;99.90;;;;;;5069202;28;20447;-84
2022/06/11 03:01:46;;;;;;;4.00;2.10;;;10.90;99.90;;;;;;5068803;28;20482;-84
2022/06/11 03:04:13;;;;;;;4.77;2.03;;;10.90;99.90;;;;;;5050930;28;20449;-84
2022/06/11 03:06:41;;;;;;;5.73;2.40;;;10.80;99.90;;;;;;5068797;28;20586;-84
2022/06/11 03:09:08;;;;;;;4.33;1.93;;;10.90;99.90;;;;;;5069462;28;20415;-85
2022/06/11 03:11:33;;;;;;;5.70;2.67;;;10.80;99.90;;;;;;5050951;28;20419;-84
2022/06/11 03:13:59;;;;;;;5.97;2.33;;;10.80;99.90;;;;;;5050941;28;20617;-84
2022/06/11 03:16:25;;;;;;;3.50;2.13;;;10.80;99.90;;;;;;5068902;28;20222;-84
2022/06/11 03:18:51;;;;;;;3.30;1.93;;;10.80;99.90;;;;;;5069153;28;20177;-84
2022/06/11 03:21:17;;;;;;;7.60;1.80;;;10.80;99.90;;;;;;5068717;28;20463;-84
2022/06/11 03:23:43;;;;;;;3.93;2.07;;;10.80;99.90;;;;;;5068510;28;20718;-85
2022/06/11 03:26:09;;;;;;;2.90;1.73;;;10.80;99.90;;;;;;5068970;28;20411;-84
2022/06/11 03:28:35;;;;;;;2.67;1.70;;;10.80;99.90;;;;;;5068273;28;20594;-84
2022/06/11 03:31:05;;;;;;;3.07;1.90;;;10.70;99.90;;;;;;5068914;28;20419;-84
2022/06/11 03:33:31;;;;;;;7.90;2.67;;;10.70;99.90;;;;;;5068745;28;20411;-84
2022/06/11 03:35:57;;;;;;;5.03;2.30;;;10.70;99.90;;;;;;5068903;28;20965;-84
2022/06/11 03:38:23;;;;;;;3.63;2.00;;;10.70;99.90;;;;;;5068560;28;20415;-84
2022/06/11 03:40:49;;;;;;;3.77;2.17;;;10.80;99.90;;;;;;5068222;28;20192;-84
2022/06/11 03:43:14;;;;;;;11.97;2.70;;;10.80;99.90;;;;;;5068120;28;20408;-84
2022/06/11 03:45:40;;;;;;;5.37;1.90;;;10.80;99.90;;;;;;5068473;28;21092;-84
2022/06/11 03:48:06;;;;;;;2.93;1.83;;;10.80;99.90;;;;;;5068150;28;20260;-84
2022/06/11 03:50:35;;;;;;;4.67;2.20;;;10.90;99.90;;;;;;5068542;28;20177;-85
2022/06/11 03:53:02;;;;;;;5.07;2.50;;;10.90;99.90;;;;;;5068291;28;20518;-84
2022/06/11 03:55:28;;;;;;;4.17;2.10;;;10.90;99.90;;;;;;5068486;28;20852;-84
2022/06/11 03:57:55;;;;;;;4.70;2.43;;;10.90;99.90;;;;;;5068641;28;20455;-84
2022/06/11 04:03:11;;;;;;;3.10;1.90;;;11.00;99.90;;;;;;5068497;28;20947;-84
2022/06/11 04:05:38;;;;;;;3.00;2.07;;;11.00;99.90;;;;;;5068117;28;20418;-84
2022/06/11 04:08:05;;;;;;;3.93;2.10;;;11.10;99.90;;;;;;5068138;28;20453;-84
2022/06/11 04:10:31;;;;;;;3.50;2.07;;;11.10;99.90;;;;;;5068384;28;20412;-85
2022/06/11 04:12:57;;;;;;;3.90;1.80;;;11.20;99.90;;;;;;5068496;28;20448;-84
2022/06/11 04:15:23;;;;;;;6.67;2.77;;;11.30;99.90;;;;;;5068292;28;20450;-85
2022/06/11 04:17:49;;;;;;;4.20;2.07;;;11.30;99.90;;;;;;5072890;28;20862;-85
2022/06/11 04:20:16;;;;;;;10.07;2.50;;;11.30;99.90;;;;;;5075303;28;20578;-84
2022/06/11 04:22:42;;;;;;;4.40;2.07;;;11.30;99.90;;;;;;5075267;28;20189;-85
2022/06/11 04:25:10;;;;;;;3.73;1.73;;;11.30;99.90;;;;;;5075933;28;20926;-85
2022/06/11 04:27:36;;;;;;;2.00;1.10;;;11.30;99.90;;;;;;5075082;28;20438;-85
2022/06/11 04:30:02;;;;;;;3.07;1.60;;;11.50;99.90;;;;;;5077595;28;20419;-85
2022/06/11 04:32:29;;;;;;;10.17;2.00;;;11.40;99.90;;;;;;5077778;28;20180;-85
2022/06/11 04:34:55;;;;;;;4.90;2.00;;;11.50;99.90;;;;;;5078289;28;20414;-85
2022/06/11 04:37:23;;;;;;;4.00;1.93;;;11.50;99.90;;;;;;5073421;28;20519;-85
2022/06/11 04:39:53;;;;;;;4.27;1.87;;;11.60;99.90;;;;;;5078337;28;20177;-85
2022/06/11 04:42:20;;;;;;;4.20;1.80;;;11.70;99.90;;;;;;5078861;28;20407;-85
2022/06/11 04:44:46;;;;;;;3.63;2.03;;;11.70;99.90;;;;;;5077878;28;20417;-86
2022/06/11 04:47:15;;;;;;;3.10;1.73;;;11.80;99.90;;;;;;5106499;28;20497;-85
2022/06/11 04:49:41;;;;;;;6.47;2.10;;;11.80;99.90;;;;;;5073429;28;20784;-85
2022/06/11 04:52:07;;;;;;;2.67;1.40;;;11.90;99.90;;;;;;5087442;28;20423;-85
2022/06/11 04:54:33;;;;;;;6.30;2.03;;;12.00;99.90;;;;;;5075316;28;20636;-85
2022/06/11 04:56:58;;;;;;;11.20;2.10;;;12.10;99.90;;;;;;5074204;28;20411;-86
2022/06/11 04:59:24;;;;;;;4.00;1.97;;;12.20;99.90;;;;;;5074393;28;20539;-85
2022/06/11 05:01:50;;;;;;;4.03;1.70;;;12.30;99.90;;;;;;5073830;28;20208;-85
2022/06/11 05:04:15;;;;;;;8.93;1.73;;;12.30;99.90;;;;;;5073007;28;20177;-85
2022/06/11 05:06:44;;;;;;;5.00;2.10;;;12.40;99.90;;;;;;5074220;28;20188;-85
2022/06/11 05:09:14;;;;;;;3.17;2.00;;;12.50;99.90;;;;;;5074445;28;20208;-86
2022/06/11 05:11:41;;;;;;;3.27;1.87;;;12.60;99.90;;;;;;5073940;28;20494;-86
2022/06/11 05:14:06;;;;;;;2.80;1.70;;;12.70;99.90;;;;;;5074258;28;20421;-86
2022/06/11 05:16:33;;;;;;;5.70;1.93;;;12.70;99.90;;;;;;5074220;28;20799;-86
2022/06/11 05:18:59;;;;;;;3.60;1.40;;;12.80;99.90;;;;;;5074231;28;20184;-86
2022/06/11 05:21:25;;;;;;;2.90;1.60;;;12.90;99.90;;;;;;5074113;28;20942;-86
2022/06/11 05:23:51;;;;;;;5.67;2.23;;;13.10;99.90;;;;;;5074141;28;20649;-86
2022/06/11 05:26:21;;;;;;;4.00;2.20;;;13.20;99.90;;;;;;5074061;28;20985;-86
2022/06/11 05:28:48;;;;;;;6.10;2.23;;;13.30;99.90;;;;;;5072340;28;20173;-86
2022/06/11 05:31:13;;;;;;;5.63;2.20;;;13.40;99.90;;;;;;5053057;28;20435;-86
2022/06/11 05:33:39;;;;;;;3.90;1.70;;;13.50;99.90;;;;;;5070649;28;20422;-86
2022/06/11 05:36:06;;;;;;;3.83;2.40;;;13.70;99.90;;;;;;5070871;28;20586;-86
2022/06/11 05:38:32;;;;;;;6.03;1.60;;;13.90;99.90;;;;;;5070384;28;20419;-86
2022/06/11 05:40:58;;;;;;;3.23;1.50;;;14.00;99.90;;;;;;5070864;28;20469;-86
2022/06/11 05:43:26;;;;;;;2.90;1.60;;;14.10;99.90;;;;;;5070475;28;20498;-86
2022/06/11 05:45:58;;;;;;;3.27;1.50;;;14.30;99.90;;;;;;5070496;28;20458;-87
2022/06/11 05:48:27;;;;;;;2.47;0.90;;;14.50;99.90;;;;;;5070345;28;20416;-87
2022/06/11 05:50:55;;;;;;;2.10;1.30;;;14.70;99.90;;;;;;5070760;28;20419;-86
2022/06/11 05:53:24;;;;;;;3.90;1.00;;;14.80;99.90;;;;;;5088825;28;20429;-86
2022/06/11 05:55:52;;;;;;;2.87;1.17;;;14.90;99.90;;;;;;5090632;28;20426;-87
2022/06/11 05:58:22;;;;;;;2.63;1.03;;;15.00;99.90;;;;;;5072310;28;20490;-87
2022/06/11 06:00:48;;;;;;;5.40;1.33;;;15.10;99.90;;;;;;5090635;28;20468;-86
2022/06/11 06:03:14;;;;;;;6.40;1.37;;;15.30;99.90;;;;;;5090417;28;20501;-87
2022/06/11 06:05:40;;;;;;;7.97;1.80;;;15.40;99.90;;;;;;5072061;28;20928;-87
2022/06/11 06:08:07;;;;;;;2.27;1.27;;;15.40;99.90;;;;;;5090435;28;20497;-87
2022/06/11 06:10:33;;;;;;;2.87;1.20;;;15.50;99.90;;;;;;5090494;28;20854;-86
2022/06/11 06:12:58;;;;;;;1.97;1.00;;;15.60;99.90;;;;;;5090038;28;20414;-87
2022/06/11 06:15:27;;;;;;;8.40;1.40;;;15.80;99.90;;;;;;5069197;28;20918;-87
2022/06/11 06:17:54;;;;;;;4.63;1.20;;;15.90;99.90;;;;;;5069696;28;20256;-86
2022/06/11 06:20:21;;;;;;;1.73;1.00;;;16.00;99.90;;;;;;5069686;28;20462;-86
2022/06/11 06:22:47;;;;;;;2.50;1.00;;;16.10;99.90;;;;;;5069347;28;20456;-86
2022/06/11 06:25:20;;;;;;;3.57;1.27;;;16.20;99.90;;;;;;5069771;28;20895;-87
2022/06/11 06:27:45;;;;;;;5.13;1.27;;;16.30;99.90;;;;;;5070124;28;20412;-88
2022/06/11 06:30:11;;;;;;;2.67;1.10;;;16.40;99.90;;;;;;5069816;28;20418;-87
2022/06/11 06:32:37;;;;;;;2.50;0.83;;;16.50;99.90;;;;;;5051212;28;20177;-87
2022/06/11 06:35:04;;;;;;;3.30;1.13;;;16.50;99.90;;;;;;5069798;28;20691;-88
2022/06/11 06:37:31;;;;;;;2.20;1.13;;;16.60;99.90;;;;;;5069155;28;20423;-87
2022/06/11 06:39:57;;;;;;;3.67;1.70;;;16.70;99.90;;;;;;5050746;28;20534;-87
2022/06/11 06:42:22;;;;;;;1.97;1.20;;;16.80;99.40;;;;;;5051152;28;20507;-87
2022/06/11 06:44:48;;;;;;;3.33;1.70;;;16.90;99.90;;;;;;5069075;28;20527;-87
2022/06/11 06:47:14;;;;;;;2.77;1.17;;;16.90;99.70;;;;;;5050506;28;20692;-87
2022/06/11 06:49:39;;;;;;;2.37;0.90;;;17.00;99.30;;;;;;5051131;28;20181;-87
2022/06/11 06:52:05;;;;;;;1.93;0.97;;;17.20;99.30;;;;;;5077052;28;20587;-86
2022/06/11 06:54:31;;;;;;;1.73;0.93;;;17.30;98.50;;;;;;5089650;28;20251;-86
2022/06/11 06:56:56;;;;;;;6.40;1.20;;;17.40;97.90;;;;;;5089084;28;20177;-87
2022/06/11 06:59:23;;;;;;;4.00;1.30;;;17.50;97.70;;;;;;5070975;28;20577;-88
2022/06/11 07:01:48;;;;;;;2.40;1.37;;;17.70;97.20;;;;;;5088817;28;20228;-88
2022/06/11 07:04:14;;;;;;;2.23;0.93;;;17.90;97.50;;;;;;5070013;28;20484;-87
2022/06/11 07:06:40;;;;;;;1.93;0.90;;;18.00;96.60;;;;;;5089013;28;20273;-87
2022/06/11 07:09:07;;;;;;;4.17;1.47;;;18.20;96.20;;;;;;5089309;28;20444;-88
2022/06/11 07:11:33;;;;;;;3.90;1.63;;;18.30;96.50;;;;;;5070170;28;20514;-87
2022/06/11 07:13:59;;;;;;;1.60;0.80;;;18.50;96.30;;;;;;5088831;28;20490;-88
2022/06/11 07:16:38;;;;;;;4.60;1.13;;;18.70;96.10;;;;;;5062924;28;20582;-87
2022/06/11 07:19:11;;;;;;;3.20;1.37;;;19.00;96.60;;;;;;5059639;28;20193;-87
2022/06/11 07:21:42;;;;;;;2.70;1.30;;;19.30;95.60;;;;;;5068993;28;20454;-87
2022/06/11 07:24:12;;;;;;;2.47;1.00;;;19.80;96.00;;;;;;5051981;28;20441;-88
2022/06/11 07:26:44;;;;;;;2.00;0.70;;;20.20;94.70;;;;;;5071555;28;20396;-88
2022/06/11 07:29:36;;;;;;;7.53;1.30;;;20.70;93.50;;;;;;5069558;28;20391;-88
2022/06/11 07:32:06;;;;;;;2.00;0.93;;;20.90;92.40;;;;;;5069768;28;20940;-88
2022/06/11 07:34:32;;;;;;;3.43;1.13;;;21.30;92.70;;;;;;5070181;28;20411;-89
2022/06/11 07:36:58;;;;;;;9.80;1.40;;;21.60;91.10;;;;;;5053670;28;20450;-89
2022/06/11 07:39:25;;;;;;;6.80;1.30;;;22.10;90.90;;;;;;5072434;28;20169;-87
2022/06/11 07:41:50;;;;;;;2.70;1.13;;;23.00;86.80;;;;;;5053782;28;20463;-86
2022/06/11 07:44:16;;;;;;;5.77;1.20;;;24.00;83.90;;;;;;5053029;28;20949;-86
2022/06/11 07:46:41;;;;;;;8.07;1.33;;;24.80;82.30;;;;;;5053431;28;20185;-86
2022/06/11 07:49:07;;;;;;;2.08;1.08;;;25.50;80.50;;;;;;5070721;28;20204;-87
2022/06/11 07:51:33;;;;;;;6.25;1.27;;;26.60;75.30;;;;;;5055588;28;20258;-86
2022/06/11 07:53:58;;;;;;;2.05;0.90;;;26.70;74.90;;;;;;5089667;28;20580;-86
2022/06/11 07:56:24;;;;;;;4.18;2.05;;;27.20;73.10;;;;;;5089823;28;20660;-87
2022/06/11 07:58:52;;;;;;;7.72;1.33;;;27.80;70.90;;;;;;5093592;28;20180;-87
2022/06/11 08:01:18;;;;;;;3.35;1.38;;;27.50;69.30;;;;;;5093393;28;20221;-86
2022/06/11 08:03:44;;;;;;;2.92;1.10;;;27.70;68.10;;;;;;5073170;28;20267;-87
2022/06/11 08:06:10;;;;;;;4.47;1.40;;;28.10;66.90;;;;;;5092949;28;20262;-87
2022/06/11 08:08:36;;;;;;;3.10;1.10;;;28.40;62.70;;;;;;5074080;28;20295;-86
2022/06/11 08:11:04;;;;;;;2.72;1.30;;;28.00;64.50;;;;;;5092111;28;20669;-87
2022/06/11 08:13:30;;;;;;;6.78;1.10;;;27.70;67.20;;;;;;5092197;28;20194;-87
2022/06/11 08:15:57;;;;;;;1.80;0.90;;;27.90;66.00;;;;;;5072768;28;20188;-87
2022/06/11 08:18:24;;;;;;;3.10;1.15;;;28.00;64.20;;;;;;5052962;28;20187;-87
2022/06/11 08:20:51;;;;;;;3.17;1.42;;;27.50;65.90;;;;;;5053713;28;20208;-87
2022/06/11 08:23:17;;;;;;;3.65;1.45;;;27.70;64.50;;;;;;5071618;28;20185;-86
2022/06/11 08:25:43;;;;;;;3.90;1.38;;;27.70;64.40;;;;;;5052970;28;20196;-86
2022/06/11 08:28:12;;;;;;;2.35;1.13;;;27.90;64.70;;;;;;5070968;28;20168;-86
2022/06/11 08:30:39;;;;;;;1.80;1.02;;;28.10;66.80;;;;;;5071384;28;20264;-87
2022/06/11 08:33:05;;;;;;;3.53;1.30;;;28.30;64.70;;;;;;5071852;28;20177;-87
2022/06/11 08:35:33;;;;;;;2.50;1.40;;;28.60;63.00;;;;;;5054270;28;20187;-86
2022/06/11 08:38:00;;;;;;;2.63;0.90;;;28.00;61.90;;;;;;5072797;28;20637;-88
2022/06/11 08:40:34;;;;;;;2.78;1.00;;;27.90;61.90;;;;;;5072375;28;20208;-86
2022/06/11 08:43:13;;;;;;;2.08;0.90;;;27.60;62.30;;;;;;5070886;28;20641;-85
2022/06/11 08:45:46;;;;;;;1.80;1.00;;;27.70;61.60;;;;;;5072052;28;20172;-85
2022/06/11 08:48:21;;;;;;;1.77;0.88;;;27.80;61.10;;;;;;5053914;28;20300;-86
2022/06/11 08:51:05;;;;;;;2.65;1.25;;;27.90;60.40;;;;;;5071240;28;20183;-85
2022/06/11 08:53:33;;;;;;;7.53;1.38;;;27.60;64.10;;;;;;5091038;28;20605;-85
2022/06/11 08:55:59;;;;;;;9.57;1.30;;;27.90;61.90;;;;;;5090028;28;20172;-85
2022/06/11 08:58:41;;;;;;;3.53;1.30;;;27.70;63.00;;;;;;5089139;28;20175;-84
2022/06/11 09:01:33;;;;;;;3.13;1.40;;;27.60;62.00;;;;;;5070598;28;20401;-85
2022/06/11 09:04:02;;;;;;;3.33;1.20;;;28.00;61.40;;;;;;5090851;28;20504;-85
2022/06/11 09:06:45;;;;;;;5.32;1.02;;;28.00;60.50;;;;;;5073576;28;20249;-87
2022/06/11 09:09:36;;;;;;;4.10;1.60;;;28.00;59.30;;;;;;5092091;28;20152;-85
2022/06/11 09:12:14;;;;;;;1.98;0.80;;;28.10;58.70;;;;;;5066470;28;20631;-86
2022/06/11 09:14:54;;;;;;;3.67;0.93;;;28.00;58.80;;;;;;5092158;28;20187;-86
2022/06/11 09:17:55;;;;;;;5.72;1.55;;;28.00;58.20;;;;;;5062080;28;20184;-86
2022/06/11 09:20:30;;;;;;;2.35;1.33;;;27.70;60.20;;;;;;5071649;28;20200;-85
2022/06/11 09:23:17;;;;;;;1.98;0.90;;;27.60;60.20;;;;;;5071722;28;20534;-85
2022/06/11 09:26:07;;;;;;;2.45;1.35;;;27.70;62.50;;;;;;5072432;28;20180;-86
2022/06/11 09:28:41;;;;;;;2.47;1.05;;;27.60;60.10;;;;;;5053532;28;20181;-85
2022/06/11 09:31:17;;;;;;;4.05;0.93;;;27.90;60.40;;;;;;5071590;28;20528;-86
2022/06/11 09:34:02;;;;;;;4.03;1.38;;;28.30;61.30;;;;;;5053905;28;20188;-86
2022/06/11 09:36:38;;;;;;;2.35;1.10;;;28.50;56.70;;;;;;5072530;28;20571;-86
2022/06/11 09:39:23;;;;;;;4.30;1.10;;;28.20;59.30;;;;;;5053660;28;20208;-86
2022/06/11 09:42:17;;;;;;;2.88;1.00;;;28.20;58.60;;;;;;5046213;28;20216;-86
2022/06/11 09:44:53;;;;;;;3.42;0.95;;;28.00;58.80;;;;;;5071597;28;20176;-86
2022/06/11 09:47:43;;;;;;;2.63;0.95;;;27.50;61.20;;;;;;5071868;28;20165;-87
2022/06/11 09:50:45;;;;;;;4.13;1.98;;;27.60;59.10;;;;;;5053757;28;20621;-86
2022/06/11 09:53:20;;;;;;;9.55;1.92;;;27.80;59.50;;;;;;5071277;28;20538;-87
2022/06/11 09:55:55;;;;;;;2.80;1.40;;;27.50;59.50;;;;;;5053895;28;20165;-86
2022/06/11 09:58:26;;;;;;;6.30;1.58;;;27.60;59.50;;;;;;5071055;28;20283;-87
2022/06/11 10:00:58;;;;;;;6.22;2.00;;;27.60;58.00;;;;;;5052900;28;20649;-85
2022/06/11 10:03:58;;;;;;;2.92;1.75;;;27.50;55.60;;;;;;5052566;28;20208;-87
2022/06/11 10:06:34;;;;;;;2.75;1.23;;;27.40;56.40;;;;;;5070939;28;20195;-86
2022/06/11 10:09:09;;;;;;;5.70;1.92;;;27.30;57.60;;;;;;5071133;28;20167;-86
2022/06/11 10:11:37;;;;;;;6.43;1.60;;;27.60;56.00;;;;;;5070925;28;20165;-86
2022/06/11 10:14:30;;;;;;;2.00;1.02;;;27.40;55.20;;;;;;5070510;28;20323;-86
2022/06/11 10:17:14;;;;;;;8.32;1.50;;;26.90;59.30;;;;;;5071707;28;20806;-86
2022/06/11 10:20:00;;;;;;;1.85;1.10;;;27.00;58.80;;;;;;5072101;28;20173;-85
2022/06/11 10:22:29;;;;;;;3.55;1.35;;;27.00;59.50;;;;;;5071562;28;20165;-85
2022/06/11 10:25:05;;;;;;;2.00;1.00;;;27.00;62.20;;;;;;5052687;28;20643;-85
2022/06/11 10:27:37;;;;;;;6.82;1.00;;;26.80;63.00;;;;;;5070686;28;20512;-84
2022/06/11 10:30:35;;;;;;;2.17;1.10;;;26.60;63.10;;;;;;5053510;28;20164;-86
2022/06/11 10:33:13;;;;;;;4.13;1.10;;;26.60;64.00;;;;;;5031871;28;20234;-84
2022/06/11 10:35:45;;;;;;;3.30;1.20;;;26.60;64.50;;;;;;5052417;28;20196;-85
2022/06/11 10:38:29;;;;;;;5.83;1.30;;;26.30;65.90;;;;;;5070317;28;20176;-84
2022/06/11 10:40:57;;;;;;;11.57;1.37;;;26.30;63.40;;;;;;5070491;28;20208;-83
2022/06/11 10:43:49;;;;;;;2.53;0.97;;;26.10;66.60;;;;;;5070055;28;20203;-85
2022/06/11 10:46:14;;;;;;;2.10;0.90;;;26.10;65.70;;;;;;5070536;28;20637;-85
2022/06/11 10:48:41;;;;;;;1.70;0.87;;;26.10;68.90;;;;;;5070604;28;20411;-84
2022/06/11 10:51:25;;;;;;;2.17;0.93;;;26.10;66.70;;;;;;5069756;28;20220;-84
2022/06/11 10:54:17;;;;;;;3.87;0.80;;;25.60;64.40;;;;;;5050227;28;20877;-84
2022/06/11 10:56:48;;;;;;;5.03;1.47;;;25.80;64.30;;;;;;5050502;28;20408;-85
2022/06/11 10:59:24;;;;;;;2.17;1.10;;;25.80;63.40;;;;;;5050616;28;20492;-85
2022/06/11 11:01:58;;;;;;;1.87;1.00;;;26.00;62.40;;;;;;5049604;28;20461;-85
2022/06/11 11:04:23;;;;;;;7.50;1.70;;;26.10;64.80;;;;;;5031362;28;20462;-85
2022/06/11 11:07:19;;;;;;;2.60;1.20;;;26.20;64.20;;;;;;5049562;28;20440;-86
2022/06/11 11:09:45;;;;;;;6.10;2.23;;;26.20;63.60;;;;;;5031922;28;20575;-85
2022/06/11 11:12:22;;;;;;;1.50;0.70;;;26.30;64.30;;;;;;5049175;28;20443;-85
2022/06/11 11:14:58;;;;;;;4.20;1.20;;;26.30;66.30;;;;;;5050194;28;20416;-84
2022/06/11 11:17:26;;;;;;;5.43;1.43;;;26.20;62.90;;;;;;5061572;28;20418;-85
2022/06/11 11:22:41;;;;;;;18.07;1.60;;;26.60;64.80;;;;;;5070203;28;20957;-85
2022/06/11 11:25:20;;;;;;;2.97;1.00;;;26.70;63.50;;;;;;5069918;28;20414;-85
2022/06/11 11:27:47;;;;;;;2.50;1.33;;;26.70;63.60;;;;;;5070030;28;20398;-84
2022/06/11 11:30:37;;;;;;;2.17;0.90;;;27.00;61.10;;;;;;5051749;28;20655;-85
2022/06/11 11:33:23;;;;;;;3.40;1.47;;;26.90;60.90;;;;;;5069705;28;20458;-85
2022/06/11 11:36:00;;;;;;;3.00;1.40;;;27.00;60.40;;;;;;5069652;28;20425;-85
2022/06/11 11:38:25;;;;;;;4.10;1.20;;;27.00;60.60;;;;;;5069392;28;20386;-85
2022/06/11 11:41:02;;;;;;;3.73;1.30;;;26.70;64.90;;;;;;5069908;28;20219;-85
2022/06/11 11:43:39;;;;;;;2.20;1.20;;;26.50;64.40;;;;;;5070657;28;20584;-84
2022/06/11 11:46:16;;;;;;;6.37;1.93;;;26.60;66.20;;;;;;5070196;28;20470;-86
2022/06/11 11:48:48;;;;;;;3.30;0.80;;;26.80;59.80;;;;;;5070319;28;20403;-86
2022/06/11 11:51:27;;;;;;;1.80;0.77;;;26.70;62.00;;;;;;5070465;28;20428;-85
2022/06/11 11:54:05;;;;;;;3.10;1.10;;;26.70;63.60;;;;;;5089282;28;20418;-86
2022/06/11 11:56:38;;;;;;;2.73;1.30;;;27.10;61.00;;;;;;5089345;28;20210;-86
2022/06/11 11:59:18;;;;;;;2.53;1.27;;;27.10;59.10;;;;;;5090222;28;20187;-85
2022/06/11 12:01:45;;;;;;;4.13;1.13;;;27.00;59.00;;;;;;5071839;28;20535;-85
2022/06/11 12:04:27;;;;;;;5.57;1.40;;;26.90;61.20;;;;;;5090249;28;20182;-85
2022/06/11 12:06:57;;;;;;;2.10;1.13;;;26.80;63.80;;;;;;5089787;28;20155;-85
2022/06/11 12:09:31;;;;;;;4.10;1.93;;;26.80;60.50;;;;;;5089604;28;20219;-86
2022/06/11 12:12:09;;;;;;;3.10;1.23;;;26.80;61.30;;;;;;5090120;28;20439;-85
2022/06/11 12:14:51;;;;;;;4.17;1.43;;;27.10;62.70;;;;;;5088542;28;20172;-85
2022/06/11 12:17:24;;;;;;;2.87;1.23;;;27.20;58.90;;;;;;5077266;28;20653;-86
2022/06/11 12:19:54;;;;;;;4.10;1.70;;;27.00;58.80;;;;;;5070743;28;20504;-86
2022/06/11 12:22:27;;;;;;;2.10;1.30;;;27.00;59.10;;;;;;5070285;28;20188;-86
2022/06/11 12:24:54;;;;;;;2.20;1.00;;;26.90;59.30;;;;;;5069799;28;20248;-86
2022/06/11 12:27:34;;;;;;;8.20;1.00;;;26.70;59.40;;;;;;5069502;28;20207;-85
2022/06/11 12:30:11;;;;;;;2.00;1.00;;;26.80;59.60;;;;;;5069199;28;20176;-84
2022/06/11 12:32:37;;;;;;;2.30;1.27;;;26.80;60.30;;;;;;5069482;28;20168;-85
2022/06/11 12:35:14;;;;;;;3.93;1.10;;;27.00;62.40;;;;;;5068940;28;20172;-84
2022/06/11 12:37:58;;;;;;;2.73;1.33;;;27.30;62.50;;;;;;5068096;28;20630;-85
2022/06/11 12:40:39;;;;;;;2.10;1.00;;;27.30;63.90;;;;;;5072209;28;20507;-85
2022/06/11 12:43:28;;;;;;;3.83;1.40;;;27.30;59.70;;;;;;5071919;28;20203;-86
2022/06/11 12:46:31;;;;;;;4.83;0.93;;;27.10;60.00;;;;;;5072865;28;20175;-85
2022/06/11 12:49:29;;;;;;;7.20;1.30;;;27.20;59.30;;;;;;5072964;28;20206;-85
2022/06/11 12:52:11;;;;;;;2.20;0.83;;;27.30;60.00;;;;;;5073448;28;20196;-85
2022/06/11 12:54:48;;;;;;;3.03;0.80;;;27.30;60.40;;;;;;5072035;28;20688;-85
2022/06/11 12:57:35;;;;;;;6.83;1.10;;;27.30;59.30;;;;;;5072016;28;20179;-85
2022/06/11 13:00:38;;;;;;;2.63;0.90;;;27.50;58.10;;;;;;5071376;28;20578;-84
2022/06/11 13:03:32;;;;;;;2.77;1.20;;;27.20;59.60;;;;;;5070012;28;20236;-86
2022/06/11 13:06:35;;;;;;;2.77;1.50;;;27.20;60.00;;;;;;5072157;28;20237;-85
2022/06/11 13:09:13;;;;;;;1.70;0.80;;;27.40;59.90;;;;;;5072325;28;20176;-85
2022/06/11 13:11:57;;;;;;;2.10;1.00;;;27.80;57.80;;;;;;5072093;28;20801;-85
2022/06/11 13:14:23;;;;;;;1.83;1.00;;;27.60;59.10;;;;;;5053841;28;20172;-85
2022/06/11 13:16:54;;;;;;;1.70;0.90;;;27.60;59.60;;;;;;5071301;28;20542;-85
2022/06/11 13:19:45;;;;;;;3.37;1.20;;;27.60;58.80;;;;;;5071913;28;20178;-86